Time;durP1;ratioP1;P1;durP2;ratioP2;P2;SDS_P1;SDS_P2;PMS_P1;PMS_P2;Temp;Humidity;BMP_temperature;BMP_pressure;BME280_temperature;BME280_humidity;BME280_pressure;Samples;Min_cycle;Max_cycle;Signal;HPM_P1;HPM_P2
2021/10/15 00:00:37;;;;;;;6.70;6.00;;;8.80;99.90;;;;;;5073207;28;20786;-59
2021/10/15 00:03:03;;;;;;;6.90;5.93;;;8.80;99.90;;;;;;5072831;28;20255;-59
2021/10/15 00:05:29;;;;;;;5.93;5.23;;;8.80;99.90;;;;;;5073034;28;20187;-58
2021/10/15 00:07:55;;;;;;;6.93;6.00;;;8.80;99.90;;;;;;5073121;28;20186;-61
2021/10/15 00:10:21;;;;;;;7.20;6.50;;;8.70;99.90;;;;;;5072516;28;20415;-61
2021/10/15 00:12:46;;;;;;;6.07;5.10;;;8.70;99.90;;;;;;5072837;28;20200;-61
2021/10/15 00:15:12;;;;;;;5.83;5.33;;;8.70;99.90;;;;;;5072974;28;20428;-59
2021/10/15 00:17:38;;;;;;;5.53;5.03;;;8.80;99.90;;;;;;5072723;28;20686;-61
2021/10/15 00:20:05;;;;;;;6.87;6.23;;;8.80;99.90;;;;;;5072996;28;20255;-60
2021/10/15 00:22:30;;;;;;;8.23;7.00;;;8.80;99.90;;;;;;5072846;28;20646;-59
2021/10/15 00:24:56;;;;;;;7.23;5.70;;;8.70;99.90;;;;;;5076352;28;20513;-57
2021/10/15 00:27:22;;;;;;;6.93;5.67;;;8.70;99.90;;;;;;5076240;28;20178;-59
2021/10/15 00:29:47;;;;;;;6.47;5.87;;;8.70;99.90;;;;;;5076374;28;20629;-61
2021/10/15 00:32:13;;;;;;;6.03;5.33;;;8.70;99.90;;;;;;5076415;28;20240;-61
2021/10/15 00:34:39;;;;;;;7.03;6.40;;;8.70;99.90;;;;;;5076741;28;20163;-59
2021/10/15 00:37:05;;;;;;;7.27;6.57;;;8.60;99.90;;;;;;5076911;28;20171;-60
2021/10/15 00:39:31;;;;;;;7.20;6.10;;;8.60;99.90;;;;;;5076398;28;20416;-61
2021/10/15 00:41:56;;;;;;;6.70;6.00;;;8.60;99.90;;;;;;5076014;28;20917;-60
2021/10/15 00:44:22;;;;;;;7.97;7.07;;;8.40;99.90;;;;;;5076118;28;20167;-60
2021/10/15 00:46:48;;;;;;;7.53;6.77;;;8.40;99.90;;;;;;5076340;28;20639;-60
2021/10/15 00:49:15;;;;;;;8.27;7.33;;;8.40;99.90;;;;;;5076309;28;20232;-60
2021/10/15 00:51:43;;;;;;;6.97;5.70;;;8.40;99.90;;;;;;5076460;28;20463;-59
2021/10/15 00:54:11;;;;;;;9.20;6.77;;;8.50;99.90;;;;;;5076491;28;20442;-60
2021/10/15 00:56:37;;;;;;;7.53;6.80;;;8.60;99.90;;;;;;5075548;28;20532;-59
2021/10/15 00:59:02;;;;;;;7.87;7.07;;;8.60;99.90;;;;;;5075829;28;20442;-60
2021/10/15 01:01:29;;;;;;;9.10;7.30;;;8.60;99.90;;;;;;5075984;28;20167;-60
2021/10/15 01:03:58;;;;;;;7.93;7.13;;;8.60;99.90;;;;;;5076067;28;20162;-60
2021/10/15 01:06:23;;;;;;;6.77;6.10;;;8.70;99.90;;;;;;5075952;28;20839;-60
2021/10/15 01:08:49;;;;;;;8.07;6.37;;;8.70;99.90;;;;;;5074096;28;20407;-60
2021/10/15 01:11:16;;;;;;;7.90;7.07;;;8.60;99.90;;;;;;5073107;28;20596;-60
2021/10/15 01:13:43;;;;;;;7.20;6.50;;;8.60;99.90;;;;;;5075362;28;20542;-60
2021/10/15 01:16:11;;;;;;;8.47;6.67;;;8.50;99.90;;;;;;5075553;28;20943;-60
2021/10/15 01:18:37;;;;;;;6.80;6.20;;;8.50;99.90;;;;;;5075475;28;20428;-60
2021/10/15 01:21:08;;;;;;;8.07;7.37;;;8.50;99.90;;;;;;5074836;28;20889;-59
2021/10/15 01:23:35;;;;;;;7.43;6.73;;;8.50;99.90;;;;;;5075729;28;20393;-60
2021/10/15 01:26:01;;;;;;;8.90;8.07;;;8.40;99.90;;;;;;5074749;28;20475;-60
2021/10/15 01:28:29;;;;;;;8.27;7.50;;;8.30;99.90;;;;;;5075149;28;20413;-59
2021/10/15 01:30:55;;;;;;;6.90;6.23;;;8.30;99.90;;;;;;5057383;28;20463;-60
2021/10/15 01:33:20;;;;;;;7.87;6.50;;;8.30;99.90;;;;;;5075801;28;20449;-60
2021/10/15 01:35:46;;;;;;;8.17;6.03;;;8.30;99.90;;;;;;5075140;28;20482;-60
2021/10/15 01:38:13;;;;;;;10.90;7.70;;;8.30;99.90;;;;;;5075010;28;20406;-60
2021/10/15 01:40:39;;;;;;;8.50;7.60;;;8.30;99.90;;;;;;5074207;28;20162;-60
2021/10/15 01:43:05;;;;;;;9.53;6.70;;;8.20;99.90;;;;;;5075196;28;20487;-59
2021/10/15 01:45:32;;;;;;;9.13;7.57;;;8.20;99.90;;;;;;5075232;28;20574;-60
2021/10/15 01:47:58;;;;;;;8.23;7.37;;;8.20;99.90;;;;;;5074988;28;20173;-60
2021/10/15 01:50:25;;;;;;;8.13;7.33;;;8.20;99.90;;;;;;5075111;28;20436;-60
2021/10/15 01:52:52;;;;;;;8.40;6.50;;;8.20;99.90;;;;;;5074569;28;20445;-60
2021/10/15 01:55:18;;;;;;;8.67;6.60;;;8.20;99.90;;;;;;5074414;28;20500;-60
2021/10/15 01:57:44;;;;;;;10.57;7.80;;;8.10;99.90;;;;;;5074483;28;20404;-60
2021/10/15 02:00:13;;;;;;;8.53;7.50;;;8.10;99.90;;;;;;5074560;28;20485;-60
2021/10/15 02:02:39;;;;;;;7.10;6.40;;;8.10;99.90;;;;;;5074695;28;20901;-60
2021/10/15 02:05:07;;;;;;;7.97;7.17;;;8.10;99.90;;;;;;5074650;28;20421;-60
2021/10/15 02:07:32;;;;;;;8.13;7.33;;;8.10;99.90;;;;;;5074665;28;20412;-60
2021/10/15 02:09:58;;;;;;;7.53;5.80;;;8.00;99.90;;;;;;5074519;28;20404;-56
2021/10/15 02:12:24;;;;;;;7.17;6.53;;;8.00;99.90;;;;;;5074245;28;20240;-59
2021/10/15 02:14:49;;;;;;;8.37;7.30;;;8.00;99.90;;;;;;5074511;28;20531;-58
2021/10/15 02:17:15;;;;;;;6.40;5.80;;;8.00;99.90;;;;;;5074667;28;20658;-61
2021/10/15 02:19:40;;;;;;;6.20;5.60;;;8.00;99.90;;;;;;5074407;28;20168;-55
2021/10/15 02:22:06;;;;;;;7.20;6.00;;;8.00;99.90;;;;;;5075130;28;20174;-57
2021/10/15 02:24:32;;;;;;;6.70;6.07;;;8.00;99.90;;;;;;5074385;28;20193;-58
2021/10/15 02:26:58;;;;;;;7.43;6.37;;;7.90;99.90;;;;;;5073978;28;20158;-59
2021/10/15 02:29:23;;;;;;;6.73;6.00;;;7.90;99.90;;;;;;5074222;28;20535;-57
2021/10/15 02:31:49;;;;;;;7.17;6.47;;;8.00;99.90;;;;;;5074042;28;20259;-58
2021/10/15 02:34:16;;;;;;;6.73;6.13;;;8.00;99.90;;;;;;5074059;28;20160;-55
2021/10/15 02:36:42;;;;;;;7.17;6.43;;;8.00;99.90;;;;;;5071592;28;20216;-60
2021/10/15 02:39:08;;;;;;;7.17;5.73;;;8.00;99.90;;;;;;5073904;28;20440;-61
2021/10/15 02:41:39;;;;;;;10.50;7.17;;;7.90;99.90;;;;;;5073694;28;20269;-61
2021/10/15 02:44:10;;;;;;;7.17;6.57;;;8.00;99.90;;;;;;5073672;28;20198;-61
2021/10/15 02:46:36;;;;;;;6.30;5.70;;;7.90;99.90;;;;;;5073230;28;20512;-58
2021/10/15 02:49:03;;;;;;;5.50;4.83;;;7.90;99.90;;;;;;5074144;28;20403;-60
2021/10/15 02:51:29;;;;;;;6.37;5.77;;;7.90;99.90;;;;;;5073787;28;20410;-60
2021/10/15 02:53:55;;;;;;;6.97;6.27;;;7.90;99.90;;;;;;5073710;28;20412;-61
2021/10/15 02:56:21;;;;;;;6.50;5.90;;;7.80;99.90;;;;;;5109070;23;20694;-60
2021/10/15 02:58:46;;;;;;;8.00;6.30;;;7.80;99.90;;;;;;5115663;28;20390;-60
2021/10/15 03:01:12;;;;;;;6.90;6.30;;;7.80;99.90;;;;;;5115565;28;20169;-60
2021/10/15 03:03:38;;;;;;;6.60;6.00;;;7.70;99.90;;;;;;5115499;28;20171;-60
2021/10/15 03:06:04;;;;;;;10.23;6.30;;;7.70;99.90;;;;;;5111374;28;20235;-60
2021/10/15 03:08:30;;;;;;;6.13;5.50;;;7.70;99.90;;;;;;5099046;28;20800;-60
2021/10/15 03:10:55;;;;;;;5.80;5.30;;;7.70;99.90;;;;;;5103919;28;20179;-59
2021/10/15 03:13:21;;;;;;;8.43;5.10;;;7.70;99.90;;;;;;5094801;28;20192;-60
2021/10/15 03:15:47;;;;;;;8.03;6.60;;;7.70;99.90;;;;;;5094552;28;20613;-60
2021/10/15 03:18:13;;;;;;;7.20;6.57;;;7.60;99.90;;;;;;5094953;28;20211;-60
2021/10/15 03:20:39;;;;;;;6.70;6.00;;;7.70;99.90;;;;;;5094830;28;20524;-60
2021/10/15 03:23:05;;;;;;;6.17;5.57;;;7.70;99.90;;;;;;5094879;28;20429;-60
2021/10/15 03:25:31;;;;;;;6.40;5.83;;;7.70;99.90;;;;;;5099092;28;20196;-60
2021/10/15 03:27:56;;;;;;;7.40;6.07;;;7.60;99.90;;;;;;5114773;28;20759;-60
2021/10/15 03:30:22;;;;;;;7.13;6.20;;;7.60;99.90;;;;;;5114989;28;20239;-60
2021/10/15 03:32:47;;;;;;;6.23;5.13;;;7.50;99.90;;;;;;5114764;28;20192;-60
2021/10/15 03:35:13;;;;;;;8.20;6.93;;;7.50;99.90;;;;;;5114510;28;20178;-59
2021/10/15 03:37:39;;;;;;;6.00;5.43;;;7.50;99.90;;;;;;5115620;28;20166;-60
2021/10/15 03:40:05;;;;;;;6.30;5.70;;;7.50;99.90;;;;;;5110264;28;20177;-60
2021/10/15 03:42:31;;;;;;;7.77;6.97;;;7.50;99.90;;;;;;5110379;28;20211;-60
2021/10/15 03:44:56;;;;;;;8.83;6.07;;;7.50;99.90;;;;;;5102972;28;20452;-60
2021/10/15 03:47:22;;;;;;;7.40;6.80;;;7.40;99.90;;;;;;5094259;28;20172;-60
2021/10/15 03:49:48;;;;;;;6.20;5.60;;;7.40;99.90;;;;;;5094186;28;20170;-59
2021/10/15 03:52:14;;;;;;;7.10;5.50;;;7.50;99.90;;;;;;5094377;28;20196;-60
2021/10/15 03:54:40;;;;;;;8.10;6.77;;;7.50;99.90;;;;;;5095686;28;20170;-60
2021/10/15 03:57:05;;;;;;;6.53;5.93;;;7.60;99.90;;;;;;5107697;28;20609;-59
2021/10/15 03:59:31;;;;;;;6.40;5.70;;;7.60;99.90;;;;;;5107067;28;20431;-60
2021/10/15 04:01:56;;;;;;;5.23;4.63;;;7.50;99.90;;;;;;5098012;28;20167;-60
2021/10/15 04:04:22;;;;;;;7.23;6.53;;;7.50;99.90;;;;;;5099345;28;20169;-60
2021/10/15 04:06:48;;;;;;;6.00;5.40;;;7.50;99.90;;;;;;5098588;28;20712;-60
2021/10/15 04:09:13;;;;;;;8.83;6.30;;;7.50;99.90;;;;;;5098585;28;20165;-60
2021/10/15 04:11:39;;;;;;;6.60;5.93;;;7.50;99.90;;;;;;5097706;28;20166;-60
2021/10/15 04:14:05;;;;;;;6.57;5.87;;;7.50;99.90;;;;;;5079704;28;20634;-60
2021/10/15 04:16:30;;;;;;;9.27;6.60;;;7.50;99.90;;;;;;5098113;28;20189;-57
2021/10/15 04:18:56;;;;;;;6.80;6.10;;;7.30;99.90;;;;;;5098621;28;20193;-60
2021/10/15 04:21:21;;;;;;;6.77;6.03;;;7.20;99.90;;;;;;5098615;28;20231;-60
2021/10/15 04:23:47;;;;;;;8.30;7.13;;;7.20;99.90;;;;;;5098609;28;20177;-60
2021/10/15 04:26:13;;;;;;;6.43;5.80;;;7.30;99.90;;;;;;5108243;28;20197;-59
2021/10/15 04:28:38;;;;;;;9.40;6.67;;;7.30;99.90;;;;;;5118422;28;20585;-60
2021/10/15 04:31:04;;;;;;;10.20;6.43;;;7.40;99.90;;;;;;5118479;28;20176;-60
2021/10/15 04:33:29;;;;;;;7.30;6.53;;;7.40;99.90;;;;;;5118905;28;20188;-59
2021/10/15 04:35:55;;;;;;;8.67;7.77;;;7.50;99.90;;;;;;5118605;28;20192;-60
2021/10/15 04:38:20;;;;;;;8.50;7.13;;;7.40;99.90;;;;;;5118426;28;20165;-60
2021/10/15 04:40:46;;;;;;;7.50;6.23;;;7.40;99.90;;;;;;5117727;28;20169;-60
2021/10/15 04:43:12;;;;;;;8.00;6.67;;;7.30;99.90;;;;;;5118844;28;20649;-60
2021/10/15 04:45:38;;;;;;;8.47;7.13;;;7.30;99.90;;;;;;5118135;28;20234;-60
2021/10/15 04:48:04;;;;;;;9.37;7.20;;;7.30;99.90;;;;;;5099932;28;20421;-59
2021/10/15 04:50:30;;;;;;;6.67;6.00;;;7.40;99.90;;;;;;5118083;28;20244;-60
2021/10/15 04:52:56;;;;;;;9.90;8.10;;;7.40;99.90;;;;;;5118128;28;20449;-60
2021/10/15 04:55:22;;;;;;;6.87;6.20;;;7.40;99.90;;;;;;5117937;28;20895;-58
2021/10/15 04:57:48;;;;;;;8.43;6.53;;;7.40;99.90;;;;;;5119210;28;20391;-60
2021/10/15 05:00:14;;;;;;;8.47;7.60;;;7.40;99.90;;;;;;5118697;28;20537;-59
2021/10/15 05:02:40;;;;;;;7.23;6.23;;;7.40;99.90;;;;;;5118833;28;20217;-59
2021/10/15 05:05:08;;;;;;;8.13;7.30;;;7.30;99.90;;;;;;5112362;28;20443;-60
2021/10/15 05:07:35;;;;;;;6.83;6.23;;;7.30;99.90;;;;;;5097434;28;20415;-60
2021/10/15 05:10:00;;;;;;;7.37;6.33;;;7.30;99.90;;;;;;5096726;28;20504;-60
2021/10/15 05:12:26;;;;;;;7.40;6.70;;;7.30;99.90;;;;;;5097003;28;20965;-59
2021/10/15 05:14:52;;;;;;;7.40;6.70;;;7.30;99.90;;;;;;5079493;28;20445;-59
2021/10/15 05:17:17;;;;;;;11.43;8.03;;;7.30;99.90;;;;;;5097344;28;20250;-60
2021/10/15 05:19:43;;;;;;;9.10;7.33;;;7.30;99.90;;;;;;5097201;28;20579;-58
2021/10/15 05:22:10;;;;;;;7.47;6.70;;;7.30;99.90;;;;;;5097901;28;20177;-59
2021/10/15 05:24:36;;;;;;;7.67;6.87;;;7.00;99.90;;;;;;5097140;28;20222;-59
2021/10/15 05:27:01;;;;;;;8.07;7.30;;;7.00;99.90;;;;;;5114330;28;20438;-59
2021/10/15 05:29:27;;;;;;;8.80;7.90;;;7.10;99.90;;;;;;5117440;28;20407;-60
2021/10/15 05:31:52;;;;;;;6.30;5.73;;;7.10;99.90;;;;;;5117952;28;20203;-58
2021/10/15 05:34:18;;;;;;;6.37;5.77;;;7.20;99.90;;;;;;5117601;28;20194;-60
2021/10/15 05:36:44;;;;;;;7.27;6.57;;;7.20;99.90;;;;;;5117343;28;20582;-59
2021/10/15 05:39:09;;;;;;;8.80;6.87;;;7.20;99.90;;;;;;5117527;28;20532;-60
2021/10/15 05:41:35;;;;;;;8.37;6.90;;;7.30;99.90;;;;;;5116970;28;20193;-60
2021/10/15 05:44:00;;;;;;;7.80;6.83;;;7.30;99.90;;;;;;5117403;28;20168;-58
2021/10/15 05:46:26;;;;;;;9.50;7.60;;;7.30;99.90;;;;;;5118132;28;20212;-57
2021/10/15 05:48:52;;;;;;;7.70;7.00;;;7.40;99.90;;;;;;5117725;28;20184;-58
2021/10/15 05:51:18;;;;;;;7.87;6.07;;;7.40;99.90;;;;;;5117695;28;20644;-57
2021/10/15 05:53:45;;;;;;;7.53;6.63;;;7.40;99.90;;;;;;5106423;27;20483;-58
2021/10/15 05:58:52;;;;;;;8.30;7.20;;;7.60;99.90;;;;;;5117399;28;20384;-59
2021/10/15 06:01:22;;;;;;;8.80;7.90;;;7.60;99.90;;;;;;5117163;28;20440;-58
2021/10/15 06:03:57;;;;;;;7.47;6.60;;;7.70;99.90;;;;;;5118391;28;20501;-59
2021/10/15 06:14:35;;;;;;;9.30;6.77;;;7.70;99.90;;;;;;5117473;28;20399;-60
2021/10/15 06:17:07;;;;;;;6.37;5.73;;;7.70;99.90;;;;;;5117789;28;20614;-59
2021/10/15 06:19:43;;;;;;;7.00;6.33;;;7.80;99.90;;;;;;5116997;28;20448;-61
2021/10/15 06:22:09;;;;;;;6.93;6.23;;;7.80;99.90;;;;;;5115422;28;20388;-60
2021/10/15 06:24:35;;;;;;;8.67;7.80;;;7.90;99.90;;;;;;5116502;28;20745;-60
2021/10/15 06:27:00;;;;;;;7.77;6.97;;;8.00;99.90;;;;;;5116696;28;20435;-56
2021/10/15 06:29:26;;;;;;;7.40;6.60;;;8.00;99.90;;;;;;5116901;28;20532;-59
2021/10/15 06:31:52;;;;;;;8.33;7.20;;;8.00;99.90;;;;;;5116477;28;20169;-59
2021/10/15 06:34:18;;;;;;;9.00;7.10;;;8.10;99.90;;;;;;5116758;28;20214;-60
2021/10/15 06:36:45;;;;;;;9.77;7.93;;;8.10;99.90;;;;;;5116347;28;20736;-58
2021/10/15 06:39:11;;;;;;;11.00;8.13;;;8.10;99.90;;;;;;5116300;28;20478;-57
2021/10/15 06:41:37;;;;;;;9.30;7.63;;;8.20;99.90;;;;;;5116601;28;20506;-60
2021/10/15 06:44:03;;;;;;;7.87;7.07;;;8.30;99.90;;;;;;5116306;28;20445;-56
2021/10/15 06:46:29;;;;;;;8.93;6.93;;;8.30;99.90;;;;;;5115794;28;20428;-57
2021/10/15 06:48:54;;;;;;;7.53;6.80;;;8.30;99.90;;;;;;5116034;28;20414;-60
2021/10/15 06:51:20;;;;;;;8.83;7.93;;;8.30;99.90;;;;;;5116309;28;20265;-60
2021/10/15 06:53:45;;;;;;;9.67;7.53;;;8.30;99.90;;;;;;5116110;28;20281;-61
2021/10/15 06:56:11;;;;;;;6.97;6.30;;;8.40;99.90;;;;;;5115324;28;20208;-59
2021/10/15 06:58:37;;;;;;;8.27;7.43;;;8.50;99.90;;;;;;5116031;28;20169;-54
2021/10/15 07:01:03;;;;;;;6.63;6.03;;;8.60;99.90;;;;;;5115370;28;20191;-58
2021/10/15 07:03:29;;;;;;;9.40;8.13;;;8.60;99.90;;;;;;5115149;28;20253;-60
2021/10/15 07:05:54;;;;;;;11.20;8.33;;;8.70;99.90;;;;;;5115645;28;20467;-59
2021/10/15 07:08:20;;;;;;;9.50;7.77;;;8.70;99.90;;;;;;5098460;28;20224;-59
2021/10/15 07:10:45;;;;;;;7.87;7.13;;;8.80;99.90;;;;;;5095178;28;20170;-60
2021/10/15 07:13:14;;;;;;;9.40;7.87;;;8.90;99.90;;;;;;5095159;28;20199;-61
2021/10/15 07:15:42;;;;;;;8.43;7.40;;;9.00;99.90;;;;;;5094558;28;20524;-62
2021/10/15 07:18:08;;;;;;;8.17;7.37;;;9.00;99.90;;;;;;5094817;28;20404;-59
2021/10/15 07:20:35;;;;;;;9.63;8.63;;;9.10;99.90;;;;;;5094803;28;20935;-62
2021/10/15 07:23:01;;;;;;;9.80;7.73;;;9.20;99.90;;;;;;5094810;28;20480;-59
2021/10/15 07:25:27;;;;;;;9.33;8.40;;;9.30;99.90;;;;;;5098413;28;20438;-60
2021/10/15 07:27:53;;;;;;;8.63;7.80;;;9.40;99.90;;;;;;5115184;28;20402;-60
2021/10/15 07:30:19;;;;;;;8.40;7.60;;;9.60;99.90;;;;;;5115399;28;20168;-59
2021/10/15 07:32:45;;;;;;;9.10;8.30;;;9.70;99.90;;;;;;5114456;28;20223;-60
2021/10/15 07:35:12;;;;;;;10.00;8.13;;;9.80;99.90;;;;;;5115528;28;20403;-60
2021/10/15 07:37:37;;;;;;;8.90;7.50;;;9.90;99.90;;;;;;5114900;28;20402;-60
2021/10/15 07:40:04;;;;;;;8.87;7.83;;;10.00;99.90;;;;;;5114967;28;20413;-58
2021/10/15 07:42:30;;;;;;;10.00;7.83;;;10.10;99.90;;;;;;5114699;28;20162;-59
2021/10/15 07:44:56;;;;;;;8.27;7.47;;;10.20;99.90;;;;;;5114510;28;20409;-59
2021/10/15 07:47:21;;;;;;;7.33;6.60;;;10.30;99.90;;;;;;5114785;28;20169;-61
2021/10/15 07:49:47;;;;;;;12.37;8.17;;;10.40;99.90;;;;;;5114685;28;20301;-61
2021/10/15 07:52:13;;;;;;;11.80;8.80;;;10.50;99.90;;;;;;5113788;28;20201;-61
2021/10/15 07:54:38;;;;;;;9.83;8.80;;;10.60;99.90;;;;;;5114799;28;20191;-61
2021/10/15 07:57:05;;;;;;;10.40;8.60;;;10.70;99.90;;;;;;5114536;28;20252;-60
2021/10/15 07:59:31;;;;;;;9.60;8.70;;;10.80;99.90;;;;;;5113080;28;20519;-60
2021/10/15 08:01:57;;;;;;;8.40;7.60;;;11.00;99.90;;;;;;5114612;28;20399;-60
2021/10/15 08:04:23;;;;;;;8.90;7.73;;;11.10;99.90;;;;;;5112974;28;20410;-61
2021/10/15 08:06:50;;;;;;;10.10;7.60;;;11.20;99.90;;;;;;5114251;28;20464;-61
2021/10/15 08:09:16;;;;;;;15.50;8.67;;;11.40;99.90;;;;;;5114504;28;20162;-61
2021/10/15 08:11:41;;;;;;;8.03;7.23;;;11.50;99.90;;;;;;5114522;28;20821;-60
2021/10/15 08:14:07;;;;;;;9.03;7.50;;;11.60;99.90;;;;;;5114535;28;20476;-60
2021/10/15 08:16:33;;;;;;;8.93;6.90;;;11.70;99.90;;;;;;5113721;28;20191;-61
2021/10/15 08:18:58;;;;;;;8.30;7.43;;;11.70;99.90;;;;;;5114477;28;20196;-62
2021/10/15 08:21:24;;;;;;;8.80;7.90;;;11.80;99.90;;;;;;5114252;28;20166;-61
2021/10/15 08:23:49;;;;;;;14.40;8.40;;;11.80;99.90;;;;;;5114338;28;20705;-61
2021/10/15 08:26:15;;;;;;;9.10;8.13;;;11.80;99.90;;;;;;5114250;28;20173;-60
2021/10/15 08:28:42;;;;;;;8.33;7.03;;;11.80;99.90;;;;;;5114897;28;20514;-61
2021/10/15 08:31:08;;;;;;;8.00;7.07;;;11.90;99.90;;;;;;5114563;28;20164;-60
2021/10/15 08:33:34;;;;;;;9.83;8.30;;;12.00;99.90;;;;;;5114475;28;20446;-60
2021/10/15 08:36:00;;;;;;;8.83;8.00;;;12.00;99.90;;;;;;5114224;28;20435;-61
2021/10/15 08:38:25;;;;;;;9.70;8.40;;;12.20;99.90;;;;;;5114582;28;20164;-59
2021/10/15 08:40:51;;;;;;;13.43;10.30;;;12.40;99.90;;;;;;5114858;28;20244;-59
2021/10/15 08:43:17;;;;;;;11.13;10.03;;;12.50;99.90;;;;;;5114689;28;20165;-60
2021/10/15 08:45:42;;;;;;;14.43;10.90;;;12.30;99.90;;;;;;5112529;28;20199;-61
2021/10/15 08:48:08;;;;;;;10.10;8.27;;;12.30;99.90;;;;;;5102833;28;20232;-59
2021/10/15 08:50:35;;;;;;;10.20;9.20;;;12.20;99.90;;;;;;5097724;28;20174;-61
2021/10/15 08:53:03;;;;;;;9.67;8.73;;;12.30;99.90;;;;;;5079569;28;20217;-60
2021/10/15 08:57:58;;;;;;;10.33;8.57;;;12.40;99.90;;;;;;5060210;28;21000;-60
2021/10/15 09:00:30;;;;;;;9.80;8.50;;;12.40;99.90;;;;;;5075521;28;20420;-59
2021/10/15 09:03:13;;;;;;;9.27;8.40;;;12.30;99.90;;;;;;5075895;28;20795;-61
2021/10/15 09:05:40;;;;;;;10.17;8.67;;;12.30;99.90;;;;;;5074276;28;20472;-59
2021/10/15 09:08:06;;;;;;;11.70;9.60;;;12.20;99.90;;;;;;5055744;28;20405;-59
2021/10/15 09:10:35;;;;;;;10.63;9.50;;;12.20;99.90;;;;;;5052201;28;20403;-60
2021/10/15 09:13:11;;;;;;;10.67;8.33;;;12.30;99.90;;;;;;5055542;28;20245;-60
2021/10/15 09:15:37;;;;;;;11.67;8.87;;;12.40;99.90;;;;;;5055156;28;20392;-60
2021/10/15 09:18:16;;;;;;;8.53;7.80;;;12.40;99.90;;;;;;5055402;28;20894;-59
2021/10/15 09:20:42;;;;;;;9.77;8.67;;;12.60;99.90;;;;;;5055363;28;20411;-59
2021/10/15 09:23:10;;;;;;;10.30;8.40;;;12.70;99.90;;;;;;5055428;28;20467;-60
2021/10/15 09:25:38;;;;;;;9.93;8.63;;;12.80;99.90;;;;;;5037097;28;20416;-59
2021/10/15 09:28:20;;;;;;;11.50;8.93;;;13.00;99.90;;;;;;5035595;28;20525;-60
2021/10/15 09:30:49;;;;;;;8.57;7.67;;;13.20;99.90;;;;;;5034805;28;20433;-60
2021/10/15 09:33:19;;;;;;;12.50;7.83;;;13.20;99.90;;;;;;5035078;28;20480;-60
2021/10/15 09:35:45;;;;;;;8.80;7.90;;;13.30;99.90;;;;;;5035098;28;20886;-60
2021/10/15 09:38:11;;;;;;;10.73;9.10;;;13.50;99.90;;;;;;5035268;28;20909;-60
2021/10/15 09:40:45;;;;;;;9.60;8.70;;;13.50;99.90;;;;;;5035042;28;20423;-60
2021/10/15 09:43:12;;;;;;;11.67;9.20;;;13.50;99.90;;;;;;5034923;28;20573;-59
2021/10/15 09:45:49;;;;;;;11.03;9.63;;;13.50;99.90;;;;;;5034798;28;20414;-60
2021/10/15 09:48:31;;;;;;;9.43;8.30;;;13.60;99.90;;;;;;5035260;28;20904;-60
2021/10/15 09:51:17;;;;;;;11.57;8.97;;;13.90;99.90;;;;;;5035292;28;20400;-60
2021/10/15 09:54:17;;;;;;;9.00;8.10;;;14.00;99.90;;;;;;5034794;28;20483;-60
2021/10/15 09:56:52;;;;;;;14.57;9.13;;;14.20;99.90;;;;;;5043329;28;20930;-60
2021/10/15 09:59:19;;;;;;;8.67;7.40;;;14.20;99.90;;;;;;5037364;28;20399;-59
2021/10/15 10:01:44;;;;;;;10.33;8.10;;;14.20;99.90;;;;;;5054277;28;20434;-58
2021/10/15 10:04:12;;;;;;;7.50;6.80;;;14.30;99.90;;;;;;5054770;28;20412;-60
2021/10/15 10:06:38;;;;;;;7.30;6.60;;;14.70;99.90;;;;;;5054474;28;20215;-60
2021/10/15 10:09:05;;;;;;;7.53;6.13;;;15.00;99.90;;;;;;5054298;28;20460;-60
2021/10/15 10:11:31;;;;;;;8.30;6.33;;;15.40;99.90;;;;;;5053893;28;20403;-59
2021/10/15 10:13:57;;;;;;;6.37;5.77;;;16.00;99.90;;;;;;5054359;28;20551;-60
2021/10/15 10:16:25;;;;;;;6.63;5.90;;;16.50;99.90;;;;;;5053768;28;20534;-60
2021/10/15 10:18:56;;;;;;;5.77;5.27;;;17.20;99.90;;;;;;5053924;28;20168;-59
2021/10/15 10:21:26;;;;;;;6.10;5.50;;;17.20;99.90;;;;;;5054470;28;20794;-57
2021/10/15 10:24:26;;;;;;;8.03;5.30;;;17.40;99.90;;;;;;5054301;28;20393;-58
2021/10/15 10:26:55;;;;;;;4.23;3.83;;;17.00;99.90;;;;;;5001445;28;20449;-58
2021/10/15 10:29:23;;;;;;;8.10;4.43;;;16.90;99.90;;;;;;5033903;28;20921;-60
2021/10/15 10:31:52;;;;;;;4.43;4.03;;;17.10;99.90;;;;;;5033658;28;20508;-60
2021/10/15 10:34:26;;;;;;;5.93;4.00;;;17.30;99.90;;;;;;5033902;28;20413;-60
2021/10/15 10:37:07;;;;;;;7.83;5.10;;;17.00;99.90;;;;;;5034047;28;20798;-60
2021/10/15 10:39:32;;;;;;;7.23;4.30;;;16.50;99.90;;;;;;5034639;28;20793;-60
2021/10/15 10:42:10;;;;;;;6.87;4.77;;;16.50;99.90;;;;;;5033470;28;20410;-60
2021/10/15 10:44:47;;;;;;;5.73;4.53;;;16.40;99.90;;;;;;5033899;28;20301;-60
2021/10/15 10:47:16;;;;;;;4.50;4.10;;;16.50;99.90;;;;;;5033251;28;20522;-59
2021/10/15 10:50:00;;;;;;;5.87;5.13;;;16.70;99.90;;;;;;5034056;28;20519;-60
2021/10/15 10:52:26;;;;;;;8.33;5.37;;;16.90;99.90;;;;;;5033784;28;20862;-59
2021/10/15 10:54:52;;;;;;;5.23;4.73;;;17.90;99.90;;;;;;5033707;28;20485;-60
2021/10/15 10:57:24;;;;;;;7.63;4.90;;;19.10;99.90;;;;;;5046939;28;20206;-60
2021/10/15 10:59:51;;;;;;;6.83;5.93;;;20.70;97.90;;;;;;5053730;28;20615;-60
2021/10/15 11:02:20;;;;;;;6.40;5.30;;;21.40;96.10;;;;;;5053172;28;20413;-59
2021/10/15 11:04:55;;;;;;;5.57;4.90;;;22.30;95.00;;;;;;5053468;28;20776;-60
2021/10/15 11:07:22;;;;;;;6.80;5.50;;;22.80;93.20;;;;;;5052406;28;20520;-59
2021/10/15 11:09:52;;;;;;;7.23;5.87;;;23.10;92.60;;;;;;5053775;28;20425;-60
2021/10/15 11:12:27;;;;;;;6.00;4.90;;;24.30;90.50;;;;;;5035691;28;20546;-60
2021/10/15 11:15:00;;;;;;;5.40;4.90;;;24.20;88.80;;;;;;5033293;28;20402;-56
2021/10/15 11:17:30;;;;;;;4.50;4.10;;;24.30;86.70;;;;;;5033032;28;20417;-58
2021/10/15 11:20:19;;;;;;;6.17;4.90;;;26.00;82.00;;;;;;5033084;28;20449;-60
2021/10/15 11:22:55;;;;;;;8.80;6.10;;;24.50;81.90;;;;;;5033090;28;20829;-60
2021/10/15 11:25:24;;;;;;;8.57;4.80;;;23.90;83.80;;;;;;5033323;28;20455;-60
2021/10/15 11:28:02;;;;;;;5.90;5.30;;;23.30;85.60;;;;;;5051230;28;20811;-59
2021/10/15 11:30:33;;;;;;;6.40;4.80;;;22.80;87.10;;;;;;5052917;28;20404;-61
2021/10/15 11:33:00;;;;;;;5.63;5.03;;;23.40;85.50;;;;;;5052916;28;20455;-61
2021/10/15 11:35:38;;;;;;;8.93;5.70;;;22.60;85.80;;;;;;5052480;28;20409;-61
2021/10/15 11:38:19;;;;;;;4.30;3.50;;;22.70;86.70;;;;;;5052414;28;20395;-60
2021/10/15 11:41:14;;;;;;;4.80;4.00;;;22.80;84.10;;;;;;5052939;28;20413;-61
2021/10/15 11:43:42;;;;;;;6.37;4.83;;;23.10;85.30;;;;;;5025258;28;20432;-61
2021/10/15 11:46:18;;;;;;;6.10;5.50;;;24.30;84.00;;;;;;5052157;28;20449;-61
2021/10/15 11:48:49;;;;;;;4.10;3.70;;;24.80;81.20;;;;;;5051758;28;20814;-62
2021/10/15 11:51:15;;;;;;;5.33;3.87;;;;;;;;;;5041414;28;20409;-61
2021/10/15 11:53:42;;;;;;;3.67;3.37;;;26.80;74.80;;;;;;5052476;28;20449;-61
2021/10/15 11:56:14;;;;;;;3.23;2.80;;;26.30;73.10;;;;;;5052118;28;20460;-61
2021/10/15 11:58:44;;;;;;;10.23;3.33;;;25.70;75.90;;;;;;5052466;28;20815;-61
2021/10/15 12:01:14;;;;;;;3.50;3.20;;;26.10;75.00;;;;;;5052652;28;20376;-61
2021/10/15 12:03:51;;;;;;;6.03;3.70;;;25.20;75.40;;;;;;5052520;28;20422;-61
2021/10/15 12:06:30;;;;;;;4.37;3.97;;;23.60;78.90;;;;;;5044809;28;20458;-61
2021/10/15 12:09:11;;;;;;;4.47;4.07;;;22.60;82.50;;;;;;5041243;28;20512;-60
2021/10/15 12:11:38;;;;;;;4.90;4.40;;;21.10;85.40;;;;;;5032306;28;20393;-59
2021/10/15 12:14:26;;;;;;;5.83;4.40;;;20.30;87.80;;;;;;5032575;28;20446;-58
2021/10/15 12:16:59;;;;;;;4.30;3.90;;;20.10;90.10;;;;;;5031744;28;20441;-60
2021/10/15 12:19:29;;;;;;;4.40;3.80;;;20.70;90.30;;;;;;5033369;28;20382;-61
2021/10/15 12:22:06;;;;;;;4.87;3.63;;;21.60;87.80;;;;;;5036124;28;20406;-61
2021/10/15 12:24:40;;;;;;;4.97;4.20;;;21.90;86.30;;;;;;5036470;28;20440;-59
2021/10/15 12:27:07;;;;;;;4.07;3.73;;;22.30;86.10;;;;;;5048083;28;20461;-59
2021/10/15 12:29:40;;;;;;;6.37;4.03;;;21.60;87.70;;;;;;5056341;28;20405;-60
2021/10/15 12:32:32;;;;;;;4.23;3.83;;;20.70;89.30;;;;;;5055604;28;20800;-60
2021/10/15 12:35:18;;;;;;;5.43;4.10;;;20.30;90.80;;;;;;5056194;28;20427;-59
2021/10/15 12:37:46;;;;;;;4.13;3.77;;;20.60;90.20;;;;;;5055892;28;20917;-61
2021/10/15 12:40:29;;;;;;;4.17;3.60;;;20.90;89.90;;;;;;5056050;28;20409;-60
2021/10/15 12:42:54;;;;;;;6.50;4.00;;;20.70;90.70;;;;;;5055404;28;20437;-61
2021/10/15 12:45:20;;;;;;;5.60;3.53;;;21.10;90.40;;;;;;5055611;28;20400;-61
2021/10/15 12:48:00;;;;;;;4.07;3.77;;;21.50;89.90;;;;;;5055553;28;20190;-61
2021/10/15 12:50:27;;;;;;;5.13;4.10;;;22.00;87.90;;;;;;5055874;28;20397;-60
2021/10/15 12:52:53;;;;;;;4.33;3.93;;;21.80;87.20;;;;;;5056482;28;20943;-61
2021/10/15 12:55:27;;;;;;;4.23;3.60;;;21.40;88.00;;;;;;5055931;28;20401;-61
2021/10/15 12:58:06;;;;;;;4.10;3.70;;;21.90;88.30;;;;;;5055093;28;20710;-61
2021/10/15 13:00:47;;;;;;;4.60;4.27;;;21.50;87.20;;;;;;5055742;28;20397;-59
2021/10/15 13:03:12;;;;;;;4.00;3.70;;;20.90;89.40;;;;;;5055780;28;20427;-60
2021/10/15 13:05:38;;;;;;;6.80;4.80;;;20.70;90.10;;;;;;5052107;28;20494;-61
2021/10/15 13:08:03;;;;;;;4.00;3.27;;;20.70;90.40;;;;;;5035580;28;20171;-61
2021/10/15 13:10:30;;;;;;;6.17;3.63;;;21.00;90.40;;;;;;5035555;28;20176;-60